createdAt,value
2018-07-16T00:00:14.919Z,5.23
2018-07-16T00:02:43.389Z,5.50
2018-07-16T00:05:18.278Z,5.67
2018-07-16T00:07:46.728Z,4.97
2018-07-16T00:10:15.268Z,6.17
2018-07-16T00:12:43.832Z,5.57
2018-07-16T00:15:12.268Z,5.63
2018-07-16T00:17:41.225Z,5.93
2018-07-16T00:20:09.707Z,5.10
2018-07-16T00:22:38.157Z,5.70
2018-07-16T00:25:06.984Z,6.00
2018-07-16T00:27:35.475Z,5.90
2018-07-16T00:30:04.065Z,5.40
2018-07-16T00:32:32.536Z,5.33
2018-07-16T00:35:01.002Z,5.60
2018-07-16T00:37:29.475Z,5.50
2018-07-16T00:39:57.986Z,5.63
2018-07-16T00:42:26.429Z,6.10
2018-07-16T00:44:54.915Z,6.03
2018-07-16T00:47:23.361Z,6.57
2018-07-16T00:49:51.832Z,7.00
2018-07-16T00:52:20.280Z,5.77
2018-07-16T00:54:48.853Z,5.67
2018-07-16T00:57:17.343Z,6.17
2018-07-16T00:59:45.778Z,5.43
2018-07-16T01:02:14.206Z,5.47
2018-07-16T01:04:42.769Z,6.30
2018-07-16T01:07:11.197Z,6.83
2018-07-16T01:09:39.699Z,5.43
2018-07-16T01:12:08.224Z,6.40
2018-07-16T01:14:36.656Z,5.83
2018-07-16T01:17:04.951Z,5.97
2018-07-16T01:19:33.469Z,6.07
2018-07-16T01:22:02.007Z,5.67
2018-07-16T01:24:30.442Z,6.37
2018-07-16T01:26:58.894Z,6.00
2018-07-16T01:29:27.328Z,6.07
2018-07-16T01:31:56.643Z,6.70
2018-07-16T01:34:25.147Z,6.93
2018-07-16T01:36:53.609Z,6.77
2018-07-16T01:39:22.042Z,6.47
2018-07-16T01:41:50.520Z,6.73
2018-07-16T01:44:18.996Z,7.00
2018-07-16T01:46:47.514Z,7.07
2018-07-16T01:49:15.964Z,6.57
2018-07-16T01:51:44.415Z,7.63
2018-07-16T01:54:12.869Z,7.60
2018-07-16T01:56:42.145Z,7.03
2018-07-16T01:59:10.605Z,8.00
2018-07-16T02:01:39.053Z,7.67
2018-07-16T02:04:07.648Z,7.43
2018-07-16T02:06:36.138Z,7.00
2018-07-16T02:09:04.735Z,7.57
2018-07-16T02:11:33.211Z,8.07
2018-07-16T02:14:01.772Z,8.37
2018-07-16T02:16:30.233Z,8.23
2018-07-16T02:18:58.659Z,7.50
2018-07-16T02:21:27.220Z,8.33
2018-07-16T02:23:55.688Z,8.23
2018-07-16T02:26:24.300Z,8.43
2018-07-16T02:28:52.826Z,8.73
2018-07-16T02:31:21.340Z,8.43
2018-07-16T02:33:49.788Z,7.87
2018-07-16T02:36:18.300Z,8.27
2018-07-16T02:38:46.744Z,8.47
2018-07-16T02:41:15.229Z,8.13
2018-07-16T02:43:50.389Z,7.77
2018-07-16T02:46:18.850Z,9.30
2018-07-16T02:48:47.355Z,8.27
2018-07-16T02:51:15.795Z,8.43
2018-07-16T02:53:44.318Z,8.73
2018-07-16T02:56:12.813Z,8.57
2018-07-16T02:58:41.207Z,7.80
2018-07-16T03:01:10.221Z,8.60
2018-07-16T03:03:38.686Z,8.93
2018-07-16T03:06:07.307Z,8.60
2018-07-16T03:08:35.847Z,8.73
2018-07-16T03:11:04.301Z,7.90
2018-07-16T03:13:32.781Z,9.27
2018-07-16T03:16:01.231Z,9.13
2018-07-16T03:18:29.775Z,8.83
2018-07-16T03:20:58.201Z,9.70
2018-07-16T03:23:26.754Z,7.97
2018-07-16T03:25:55.228Z,8.77
2018-07-16T03:28:23.742Z,9.37
2018-07-16T03:30:53.044Z,9.20
2018-07-16T03:33:21.537Z,8.80
2018-07-16T03:35:49.939Z,8.70
2018-07-16T03:38:18.510Z,10.37
2018-07-16T03:40:47.082Z,9.63
2018-07-16T03:43:15.671Z,9.23
2018-07-16T03:45:44.200Z,9.60
2018-07-16T03:48:12.834Z,9.90
2018-07-16T03:50:41.271Z,10.00
2018-07-16T03:53:10.431Z,9.87
2018-07-16T03:55:38.881Z,10.90
2018-07-16T03:58:07.290Z,11.63
2018-07-16T04:00:35.750Z,9.90
2018-07-16T04:03:04.272Z,9.50
2018-07-16T04:05:32.756Z,10.40
2018-07-16T04:08:01.232Z,10.17
2018-07-16T04:10:29.784Z,10.07
2018-07-16T04:12:58.225Z,10.77
2018-07-16T04:15:26.843Z,9.80
2018-07-16T04:17:55.310Z,10.97
2018-07-16T04:20:23.486Z,10.33
2018-07-16T04:22:52.012Z,10.37
2018-07-16T04:25:20.629Z,10.33
2018-07-16T04:27:49.203Z,11.37
2018-07-16T04:30:18.658Z,11.53
2018-07-16T04:32:47.135Z,11.73
2018-07-16T04:35:15.659Z,12.97
2018-07-16T04:37:44.213Z,12.07
2018-07-16T04:40:12.781Z,11.07
2018-07-16T04:42:44.841Z,11.77
2018-07-16T04:45:14.334Z,12.40
2018-07-16T04:47:44.112Z,11.90
2018-07-16T04:50:13.216Z,12.67
2018-07-16T04:52:41.727Z,11.87
2018-07-16T04:55:11.436Z,12.00
2018-07-16T04:57:39.979Z,12.17
2018-07-16T05:00:08.688Z,12.03
2018-07-16T05:02:37.427Z,12.63
2018-07-16T05:05:06.781Z,13.30
2018-07-16T05:07:35.311Z,13.03
2018-07-16T05:10:03.792Z,12.00
2018-07-16T05:12:32.279Z,12.67
2018-07-16T05:15:00.932Z,11.83
2018-07-16T05:17:29.624Z,11.20
2018-07-16T05:19:59.272Z,12.87
2018-07-16T05:22:28.139Z,12.17
2018-07-16T05:24:56.663Z,11.63
2018-07-16T05:27:25.161Z,11.77
2018-07-16T05:29:53.969Z,11.47
2018-07-16T05:32:23.763Z,12.50
2018-07-16T05:34:52.469Z,11.43
2018-07-16T05:37:21.222Z,12.47
2018-07-16T05:39:50.668Z,11.93
2018-07-16T05:42:19.580Z,12.57
2018-07-16T05:44:48.357Z,12.20
2018-07-16T05:47:18.522Z,11.90
2018-07-16T05:49:47.498Z,12.37
2018-07-16T05:52:16.851Z,12.00
2018-07-16T05:54:45.483Z,12.03
2018-07-16T05:57:14.172Z,11.57
2018-07-16T05:59:42.926Z,12.27
2018-07-16T06:02:11.791Z,11.70
2018-07-16T06:04:40.697Z,11.17
2018-07-16T06:07:10.087Z,11.87
2018-07-16T06:09:38.936Z,10.83
2018-07-16T06:12:07.488Z,11.10
2018-07-16T06:14:36.046Z,10.20
2018-07-16T06:17:05.141Z,9.60
2018-07-16T06:19:33.682Z,9.47
2018-07-16T06:22:02.243Z,8.80
2018-07-16T06:24:30.713Z,9.60
2018-07-16T06:26:59.229Z,8.17
2018-07-16T06:29:27.784Z,8.60
2018-07-16T06:31:56.316Z,8.37
2018-07-16T06:34:24.957Z,9.23
2018-07-16T06:36:53.572Z,8.00
2018-07-16T06:39:22.155Z,7.27
2018-07-16T06:41:50.758Z,8.10
2018-07-16T06:44:19.239Z,7.00
2018-07-16T06:46:47.867Z,7.63
2018-07-16T06:49:16.421Z,7.13
2018-07-16T06:51:44.925Z,6.10
2018-07-16T06:54:13.480Z,5.30
2018-07-16T06:56:42.123Z,5.23
2018-07-16T06:59:10.710Z,5.43
2018-07-16T07:01:39.231Z,4.73
2018-07-16T07:04:07.699Z,4.23
2018-07-16T07:06:36.249Z,3.67
2018-07-16T07:09:05.019Z,4.03
2018-07-16T07:11:33.557Z,4.13
2018-07-16T07:14:02.203Z,4.27
2018-07-16T07:16:30.766Z,3.47
2018-07-16T07:18:59.262Z,3.53
2018-07-16T07:21:27.747Z,3.83
2018-07-16T07:23:56.334Z,3.40
2018-07-16T07:26:24.862Z,3.63
2018-07-16T07:28:53.407Z,3.80
2018-07-16T07:31:21.893Z,3.67
2018-07-16T07:33:50.448Z,3.80
2018-07-16T07:36:19.125Z,3.20
2018-07-16T07:38:47.712Z,3.57
2018-07-16T07:41:16.256Z,3.60
2018-07-16T07:43:44.858Z,4.30
2018-07-16T07:46:13.448Z,3.40
2018-07-16T07:48:41.938Z,3.40
2018-07-16T07:51:10.555Z,3.87
2018-07-16T07:53:39.163Z,3.30
2018-07-16T07:56:08.603Z,3.63
2018-07-16T07:58:37.132Z,3.50
2018-07-16T08:01:05.717Z,3.00
2018-07-16T08:03:34.334Z,3.12
2018-07-16T08:06:06.384Z,2.72
2018-07-16T08:08:35.848Z,2.58
2018-07-16T08:11:05.166Z,2.50
2018-07-16T08:13:34.032Z,2.77
2018-07-16T08:16:02.990Z,2.42
2018-07-16T08:18:31.722Z,2.30
2018-07-16T08:21:00.423Z,2.60
2018-07-16T08:23:28.995Z,1.98
2018-07-16T08:25:57.690Z,2.50
2018-07-16T08:28:26.336Z,4.33
2018-07-16T08:30:55.054Z,3.10
2018-07-16T08:33:24.670Z,2.47
2018-07-16T08:35:53.415Z,2.45
2018-07-16T08:38:22.034Z,2.45
2018-07-16T08:40:51.689Z,2.30
2018-07-16T08:43:20.437Z,2.22
2018-07-16T08:45:49.239Z,2.30
2018-07-16T08:48:17.797Z,2.05
2018-07-16T08:50:46.347Z,1.98
2018-07-16T08:53:14.914Z,1.70
2018-07-16T08:55:43.418Z,1.67
2018-07-16T08:58:12.040Z,1.95
2018-07-16T09:00:40.819Z,1.80
2018-07-16T09:03:09.344Z,1.62
2018-07-16T09:05:37.965Z,1.90
2018-07-16T09:08:06.569Z,1.95
2018-07-16T09:10:35.199Z,2.17
2018-07-16T09:13:03.865Z,1.90
2018-07-16T09:15:32.371Z,1.42
2018-07-16T09:18:00.964Z,1.65
2018-07-16T09:20:29.644Z,1.55
2018-07-16T09:22:58.233Z,1.60
2018-07-16T09:25:27.027Z,1.67
2018-07-16T09:27:55.593Z,1.70
2018-07-16T09:30:24.222Z,1.37
2018-07-16T09:32:52.809Z,1.40
2018-07-16T09:35:21.324Z,1.80
2018-07-16T09:37:50.010Z,1.50
2018-07-16T09:40:18.672Z,1.75
2018-07-16T09:42:47.253Z,1.35
2018-07-16T09:45:16.912Z,1.60
2018-07-16T09:47:45.497Z,2.10
2018-07-16T09:50:14.087Z,1.40
2018-07-16T09:52:42.750Z,1.42
2018-07-16T09:55:11.290Z,1.60
2018-07-16T09:57:39.933Z,1.42
2018-07-16T10:00:08.568Z,1.80
2018-07-16T10:02:37.073Z,1.57
2018-07-16T10:05:05.636Z,2.00
2018-07-16T10:07:34.253Z,2.95
2018-07-16T10:10:02.797Z,2.10
2018-07-16T10:12:31.366Z,3.87
2018-07-16T10:14:59.949Z,4.28
2018-07-16T10:17:28.698Z,1.40
2018-07-16T10:19:57.631Z,1.82
2018-07-16T10:22:25.927Z,2.00
2018-07-16T10:24:54.408Z,1.80
2018-07-16T10:27:22.960Z,2.17
2018-07-16T10:29:51.454Z,1.80
2018-07-16T10:32:19.966Z,1.92
2018-07-16T10:34:48.547Z,2.00
2018-07-16T10:37:17.131Z,1.62
2018-07-16T10:39:45.628Z,1.98
2018-07-16T10:42:14.143Z,3.00
2018-07-16T10:44:42.752Z,2.50
2018-07-16T10:47:11.294Z,2.27
2018-07-16T10:49:40.826Z,1.90
2018-07-16T10:52:09.439Z,2.12
2018-07-16T10:54:37.959Z,2.52
2018-07-16T10:57:06.889Z,2.00
2018-07-16T10:59:35.598Z,2.33
2018-07-16T11:02:04.381Z,1.90
2018-07-16T11:04:32.808Z,1.80
2018-07-16T11:07:01.372Z,1.90
2018-07-16T11:09:30.028Z,2.05
2018-07-16T11:11:58.754Z,1.75
2018-07-16T11:14:27.340Z,2.20
2018-07-16T11:16:55.855Z,2.10
2018-07-16T11:19:24.403Z,1.80
2018-07-16T11:21:53.011Z,2.33
2018-07-16T11:24:21.616Z,2.00
2018-07-16T11:26:50.195Z,2.00
2018-07-16T11:29:19.957Z,1.75
2018-07-16T11:31:48.577Z,1.95
2018-07-16T11:34:17.271Z,1.67
2018-07-16T11:36:45.783Z,2.25
2018-07-16T11:39:14.991Z,1.80
2018-07-16T11:41:43.647Z,1.60
2018-07-16T11:44:13.320Z,1.85
2018-07-16T11:46:42.186Z,1.75
2018-07-16T11:49:12.098Z,1.40
2018-07-16T11:51:40.729Z,1.77
2018-07-16T11:54:09.186Z,1.77
2018-07-16T11:56:37.789Z,1.72
2018-07-16T11:59:06.376Z,1.65
2018-07-16T12:01:34.564Z,1.65
2018-07-16T12:04:03.163Z,1.60
2018-07-16T12:06:31.763Z,1.92
2018-07-16T12:09:00.308Z,1.70
2018-07-16T12:11:29.638Z,1.47
2018-07-16T12:13:58.226Z,1.77
2018-07-16T12:16:26.784Z,1.60
2018-07-16T12:18:54.966Z,1.75
2018-07-16T12:21:23.734Z,1.75
2018-07-16T12:23:55.306Z,1.70
2018-07-16T12:26:26.891Z,1.75
2018-07-16T12:28:55.506Z,2.00
2018-07-16T12:31:24.172Z,1.62
2018-07-16T12:34:23.527Z,1.95
2018-07-16T12:36:52.173Z,2.22
2018-07-16T12:39:20.707Z,2.00
2018-07-16T12:41:49.620Z,1.98
2018-07-16T12:44:18.138Z,1.80
2018-07-16T12:46:46.770Z,2.25
2018-07-16T12:49:15.909Z,1.98
2018-07-16T12:51:44.458Z,1.57
2018-07-16T12:54:13.025Z,1.50
2018-07-16T12:56:41.632Z,1.98
2018-07-16T12:59:10.135Z,2.25
2018-07-16T13:01:38.799Z,2.92
2018-07-16T13:04:07.355Z,2.60
2018-07-16T13:06:35.907Z,2.40
2018-07-16T13:09:05.158Z,1.82
2018-07-16T13:11:33.672Z,1.75
2018-07-16T13:14:02.950Z,1.60
2018-07-16T13:16:36.303Z,1.70
2018-07-16T13:19:04.786Z,1.60
2018-07-16T13:21:40.206Z,1.55
2018-07-16T13:24:08.639Z,1.52
2018-07-16T13:26:37.135Z,1.65
2018-07-16T13:29:05.648Z,1.90
2018-07-16T13:31:34.564Z,1.50
2018-07-16T13:34:03.180Z,1.45
2018-07-16T13:36:32.135Z,1.65
2018-07-16T13:39:00.629Z,1.82
2018-07-16T13:41:29.138Z,1.95
2018-07-16T13:43:57.759Z,1.75
2018-07-16T13:46:26.284Z,1.62
2018-07-16T13:48:55.353Z,1.75
2018-07-16T13:51:23.844Z,1.52
2018-07-16T13:53:52.324Z,2.05
2018-07-16T13:56:20.920Z,2.00
2018-07-16T13:58:49.441Z,1.87
2018-07-16T14:01:18.877Z,1.80
2018-07-16T14:03:47.483Z,1.57
2018-07-16T14:06:16.351Z,1.90
2018-07-16T14:08:45.115Z,1.65
2018-07-16T14:11:14.194Z,1.65
2018-07-16T14:13:43.029Z,1.82
2018-07-16T14:16:12.904Z,2.10
2018-07-16T14:18:41.464Z,1.60
2018-07-16T14:21:10.106Z,1.50
2018-07-16T14:23:39.664Z,1.77
2018-07-16T14:26:08.232Z,1.60
2018-07-16T14:28:36.862Z,1.85
2018-07-16T14:31:05.597Z,1.67
2018-07-16T14:33:33.807Z,1.80
2018-07-16T14:36:02.508Z,1.95
2018-07-16T14:38:31.509Z,2.00
2018-07-16T14:41:00.203Z,1.98
2018-07-16T14:43:29.019Z,1.80
2018-07-16T14:45:58.255Z,1.82
2018-07-16T14:48:26.989Z,1.70
2018-07-16T14:50:56.406Z,1.70
2018-07-16T14:53:26.273Z,1.60
2018-07-16T14:55:55.453Z,1.42
2018-07-16T14:58:24.050Z,1.85
2018-07-16T15:00:52.639Z,2.10
2018-07-16T15:03:21.865Z,1.57
2018-07-16T15:05:50.775Z,1.60
2018-07-16T15:08:19.571Z,1.60
2018-07-16T15:10:48.214Z,1.80
2018-07-16T15:13:16.793Z,1.60
2018-07-16T15:15:45.372Z,1.80
2018-07-16T15:18:13.952Z,1.77
2018-07-16T15:20:42.748Z,1.80
2018-07-16T15:23:11.259Z,1.60
2018-07-16T15:25:39.829Z,1.92
2018-07-16T15:28:10.108Z,1.60
2018-07-16T15:30:39.313Z,1.70
2018-07-16T15:33:09.038Z,1.92
2018-07-16T15:35:37.750Z,1.57
2018-07-16T15:38:06.720Z,1.92
2018-07-16T15:40:35.300Z,2.33
2018-07-16T15:43:03.989Z,1.62
2018-07-16T15:45:32.512Z,1.70
2018-07-16T15:48:03.987Z,1.62
2018-07-16T15:50:32.619Z,1.80
2018-07-16T15:53:01.128Z,1.90
2018-07-16T15:55:29.860Z,2.80
2018-07-16T15:57:58.435Z,1.90
2018-07-16T16:00:26.766Z,8.08
2018-07-16T16:02:55.342Z,1.90
2018-07-16T16:05:24.030Z,1.60
2018-07-16T16:07:52.548Z,1.62
2018-07-16T16:10:21.044Z,1.20
2018-07-16T16:12:49.558Z,1.52
2018-07-16T16:15:18.320Z,1.60
2018-07-16T16:17:46.883Z,1.77
2018-07-16T16:20:15.447Z,1.70
2018-07-16T16:22:43.929Z,1.40
2018-07-16T16:25:12.391Z,1.65
2018-07-16T16:27:40.945Z,1.62
2018-07-16T16:30:09.438Z,1.55
2018-07-16T16:32:38.119Z,1.77
2018-07-16T16:35:06.638Z,1.42
2018-07-16T16:37:35.302Z,1.57
2018-07-16T16:40:03.825Z,1.52
2018-07-16T16:42:32.335Z,1.72
2018-07-16T16:45:00.856Z,2.90
2018-07-16T16:47:29.427Z,2.87
2018-07-16T16:49:57.959Z,2.27
2018-07-16T16:52:26.551Z,1.98
2018-07-16T16:55:02.180Z,1.90
2018-07-16T16:57:31.129Z,1.70
2018-07-16T16:59:59.604Z,1.60
2018-07-16T17:02:28.163Z,2.70
2018-07-16T17:04:56.674Z,2.37
2018-07-16T17:07:25.248Z,1.92
2018-07-16T17:09:53.732Z,1.57
2018-07-16T17:12:22.257Z,1.72
2018-07-16T17:14:50.744Z,2.10
2018-07-16T17:17:19.456Z,2.00
2018-07-16T17:19:49.029Z,1.92
2018-07-16T17:22:17.548Z,1.80
2018-07-16T17:24:46.157Z,2.10
2018-07-16T17:27:15.163Z,1.90
2018-07-16T17:29:43.766Z,2.17
2018-07-16T17:32:12.316Z,1.95
2018-07-16T17:34:41.815Z,2.00
2018-07-16T17:37:10.341Z,1.90
2018-07-16T17:39:39.030Z,1.82
2018-07-16T17:42:07.622Z,2.10
2018-07-16T17:44:35.948Z,2.00
2018-07-16T17:47:04.557Z,2.00
2018-07-16T17:49:33.289Z,2.10
2018-07-16T17:52:01.739Z,2.30
2018-07-16T17:54:30.321Z,2.47
2018-07-16T17:56:58.964Z,2.60
2018-07-16T17:59:27.503Z,2.50
2018-07-16T18:01:56.010Z,2.67
2018-07-16T18:04:24.728Z,2.70
2018-07-16T18:06:53.269Z,2.10
2018-07-16T18:09:21.823Z,2.52
2018-07-16T18:12:02.901Z,2.58
2018-07-16T18:14:33.264Z,2.40
2018-07-16T18:17:09.614Z,2.95
2018-07-16T18:19:42.624Z,2.65
2018-07-16T18:22:16.759Z,2.80
2018-07-16T18:24:45.307Z,2.83
2018-07-16T18:27:13.904Z,2.42
2018-07-16T18:29:42.487Z,2.50
2018-07-16T18:32:11.768Z,3.10
2018-07-16T18:34:40.355Z,3.50
2018-07-16T18:37:09.280Z,3.17
2018-07-16T18:39:37.792Z,2.80
2018-07-16T18:42:06.449Z,3.05
2018-07-16T18:44:35.830Z,3.33
2018-07-16T18:47:04.559Z,3.05
2018-07-16T18:49:34.036Z,3.12
2018-07-16T18:52:03.528Z,3.42
2018-07-16T18:54:32.308Z,2.87
2018-07-16T18:57:00.932Z,3.42
2018-07-16T18:59:30.340Z,3.40
2018-07-16T19:01:59.993Z,3.20
2018-07-16T19:04:28.757Z,3.60
2018-07-16T19:09:36.515Z,3.33
2018-07-16T19:12:07.343Z,3.50
2018-07-16T19:14:36.098Z,3.58
2018-07-16T19:17:04.697Z,3.62
2018-07-16T19:19:33.386Z,3.22
2018-07-16T19:22:08.081Z,3.72
2018-07-16T19:24:39.083Z,3.70
2018-07-16T19:27:08.880Z,3.45
2018-07-16T19:29:38.872Z,4.08
2018-07-16T19:32:10.584Z,4.30
2018-07-16T19:34:40.155Z,4.10
2018-07-16T19:37:09.110Z,4.35
2018-07-16T19:39:37.951Z,3.75
2018-07-16T19:42:07.546Z,3.92
2018-07-16T19:44:37.230Z,4.20
2018-07-16T19:47:06.129Z,4.10
2018-07-16T19:49:37.100Z,4.72
2018-07-16T19:52:05.903Z,4.95
2018-07-16T19:54:34.510Z,5.00
2018-07-16T19:57:03.856Z,5.03
2018-07-16T19:59:32.516Z,5.30
2018-07-16T20:02:01.294Z,4.47
2018-07-16T20:04:31.910Z,4.45
2018-07-16T20:07:01.591Z,4.65
2018-07-16T20:09:31.324Z,5.08
2018-07-16T20:11:59.893Z,4.97
2018-07-16T20:14:28.590Z,5.42
2018-07-16T20:16:57.378Z,5.62
2018-07-16T20:19:26.274Z,6.22
2018-07-16T20:21:54.910Z,6.37
2018-07-16T20:24:26.745Z,5.55
2018-07-16T20:26:55.609Z,5.47
2018-07-16T20:29:24.846Z,5.72
2018-07-16T20:31:53.631Z,5.60
2018-07-16T20:34:22.343Z,5.87
2018-07-16T20:36:50.945Z,6.00
2018-07-16T20:39:24.987Z,5.65
2018-07-16T20:41:53.590Z,5.70
2018-07-16T20:44:22.164Z,5.90
2018-07-16T20:46:50.868Z,5.97
2018-07-16T20:49:19.533Z,5.28
2018-07-16T20:51:51.246Z,5.55
2018-07-16T20:54:19.992Z,6.40
2018-07-16T20:56:48.567Z,5.85
2018-07-16T20:59:17.082Z,6.55
2018-07-16T21:01:45.693Z,6.10
2018-07-16T21:04:14.236Z,6.85
2018-07-16T21:06:42.792Z,7.22
2018-07-16T21:09:11.382Z,7.12
2018-07-16T21:11:40.851Z,6.30
2018-07-16T21:14:09.579Z,7.20
2018-07-16T21:16:39.022Z,7.33
2018-07-16T21:19:07.541Z,6.83
2018-07-16T21:21:36.275Z,7.95
2018-07-16T21:24:04.908Z,7.40
2018-07-16T21:26:33.528Z,7.60
2018-07-16T21:29:02.254Z,7.13
2018-07-16T21:31:30.823Z,7.80
2018-07-16T21:34:00.209Z,6.93
2018-07-16T21:36:29.621Z,6.87
2018-07-16T21:38:58.180Z,6.00
2018-07-16T21:41:26.727Z,6.40
2018-07-16T21:43:55.323Z,6.43
2018-07-16T21:46:23.874Z,5.70
2018-07-16T21:48:56.140Z,6.62
2018-07-16T21:51:25.653Z,6.22
2018-07-16T21:53:55.076Z,6.67
2018-07-16T21:56:24.356Z,5.78
2018-07-16T21:58:52.792Z,7.53
2018-07-16T22:01:21.375Z,6.97
2018-07-16T22:03:49.899Z,6.83
2018-07-16T22:06:18.547Z,7.53
2018-07-16T22:08:47.072Z,6.90
2018-07-16T22:11:15.602Z,7.00
2018-07-16T22:13:44.141Z,6.90
2018-07-16T22:16:12.783Z,7.13
2018-07-16T22:18:41.160Z,6.70
2018-07-16T22:21:09.654Z,6.67
2018-07-16T22:23:38.139Z,6.63
2018-07-16T22:26:06.683Z,8.33
2018-07-16T22:28:35.185Z,7.07
2018-07-16T22:31:03.659Z,7.23
2018-07-16T22:33:32.175Z,6.67
2018-07-16T22:36:00.664Z,6.97
2018-07-16T22:38:29.144Z,6.63
2018-07-16T22:40:57.625Z,6.67
2018-07-16T22:43:26.248Z,6.90
2018-07-16T22:45:54.705Z,7.00
2018-07-16T22:48:23.163Z,7.50
2018-07-16T22:50:51.637Z,7.30
2018-07-16T22:53:20.079Z,7.30
2018-07-16T22:55:50.224Z,7.33
2018-07-16T22:58:18.786Z,8.43
2018-07-16T23:00:47.228Z,8.40
2018-07-16T23:03:15.723Z,9.43
2018-07-16T23:05:44.329Z,8.20
2018-07-16T23:08:14.219Z,8.05
2018-07-16T23:10:42.675Z,7.80
2018-07-16T23:13:11.133Z,7.87
2018-07-16T23:15:39.571Z,7.63
2018-07-16T23:18:08.045Z,8.40
2018-07-16T23:20:36.550Z,8.40
2018-07-16T23:23:05.037Z,8.30
2018-07-16T23:25:33.619Z,9.17
2018-07-16T23:28:02.073Z,8.33
2018-07-16T23:30:30.658Z,8.00
2018-07-16T23:32:59.131Z,7.87
2018-07-16T23:35:27.632Z,8.33
2018-07-16T23:37:56.301Z,8.83
2018-07-16T23:40:24.795Z,7.73
2018-07-16T23:42:53.710Z,8.77
2018-07-16T23:45:22.248Z,8.20
2018-07-16T23:47:50.767Z,8.37
2018-07-16T23:50:19.280Z,8.80
2018-07-16T23:52:47.777Z,8.00
2018-07-16T23:55:16.253Z,8.40
2018-07-16T23:57:44.968Z,7.93
